sensor_id;sensor_type;location;lat;lon;timestamp;P1;durP1;ratioP1;P2;durP2;ratioP2
5616;SDS011;2830;50.656;7.568;2024-02-28T00:01:02;70.00;;;33.38;;
5616;SDS011;2830;50.656;7.568;2024-02-28T00:03:29;64.93;;;31.45;;
5616;SDS011;2830;50.656;7.568;2024-02-28T00:05:58;68.53;;;33.80;;
5616;SDS011;2830;50.656;7.568;2024-02-28T00:08:25;70.22;;;31.75;;
5616;SDS011;2830;50.656;7.568;2024-02-28T00:10:52;72.28;;;35.42;;
5616;SDS011;2830;50.656;7.568;2024-02-28T00:13:20;78.70;;;36.85;;
5616;SDS011;2830;50.656;7.568;2024-02-28T00:15:48;69.70;;;33.28;;
5616;SDS011;2830;50.656;7.568;2024-02-28T00:18:16;68.45;;;31.60;;
5616;SDS011;2830;50.656;7.568;2024-02-28T00:20:46;63.95;;;31.13;;
5616;SDS011;2830;50.656;7.568;2024-02-28T00:23:13;67.10;;;32.20;;
5616;SDS011;2830;50.656;7.568;2024-02-28T00:25:40;66.50;;;32.00;;
5616;SDS011;2830;50.656;7.568;2024-02-28T00:28:07;64.32;;;32.00;;
5616;SDS011;2830;50.656;7.568;2024-02-28T00:30:35;68.07;;;33.53;;
5616;SDS011;2830;50.656;7.568;2024-02-28T00:33:02;67.07;;;34.35;;
5616;SDS011;2830;50.656;7.568;2024-02-28T00:35:31;66.57;;;31.38;;
5616;SDS011;2830;50.656;7.568;2024-02-28T00:38:05;72.45;;;33.25;;
5616;SDS011;2830;50.656;7.568;2024-02-28T00:40:32;68.15;;;32.08;;
5616;SDS011;2830;50.656;7.568;2024-02-28T00:42:59;59.97;;;31.50;;
5616;SDS011;2830;50.656;7.568;2024-02-28T00:45:26;81.53;;;33.90;;
5616;SDS011;2830;50.656;7.568;2024-02-28T00:47:52;70.78;;;33.25;;
5616;SDS011;2830;50.656;7.568;2024-02-28T00:50:21;71.97;;;30.85;;
5616;SDS011;2830;50.656;7.568;2024-02-28T00:52:48;59.78;;;31.42;;
5616;SDS011;2830;50.656;7.568;2024-02-28T00:55:15;58.85;;;30.60;;
5616;SDS011;2830;50.656;7.568;2024-02-28T00:57:42;65.40;;;29.88;;
5616;SDS011;2830;50.656;7.568;2024-02-28T01:00:09;62.10;;;32.25;;
5616;SDS011;2830;50.656;7.568;2024-02-28T01:02:36;65.45;;;31.83;;
5616;SDS011;2830;50.656;7.568;2024-02-28T01:05:03;71.70;;;30.25;;
5616;SDS011;2830;50.656;7.568;2024-02-28T01:07:30;67.38;;;30.65;;
5616;SDS011;2830;50.656;7.568;2024-02-28T01:09:57;65.95;;;29.13;;
5616;SDS011;2830;50.656;7.568;2024-02-28T01:12:24;56.03;;;28.17;;
5616;SDS011;2830;50.656;7.568;2024-02-28T01:14:51;65.55;;;30.33;;
5616;SDS011;2830;50.656;7.568;2024-02-28T01:17:18;67.68;;;31.67;;
5616;SDS011;2830;50.656;7.568;2024-02-28T01:19:45;65.45;;;31.02;;
5616;SDS011;2830;50.656;7.568;2024-02-28T01:22:12;59.72;;;30.05;;
5616;SDS011;2830;50.656;7.568;2024-02-28T01:24:39;61.13;;;30.02;;
5616;SDS011;2830;50.656;7.568;2024-02-28T01:27:05;60.55;;;27.27;;
5616;SDS011;2830;50.656;7.568;2024-02-28T01:29:32;68.03;;;30.90;;
5616;SDS011;2830;50.656;7.568;2024-02-28T01:31:59;65.30;;;30.33;;
5616;SDS011;2830;50.656;7.568;2024-02-28T01:34:26;72.10;;;34.17;;
5616;SDS011;2830;50.656;7.568;2024-02-28T01:36:53;71.85;;;34.92;;
5616;SDS011;2830;50.656;7.568;2024-02-28T01:39:20;65.80;;;28.38;;
5616;SDS011;2830;50.656;7.568;2024-02-28T01:41:53;77.55;;;33.60;;
5616;SDS011;2830;50.656;7.568;2024-02-28T01:44:21;87.60;;;33.05;;
5616;SDS011;2830;50.656;7.568;2024-02-28T01:46:48;72.18;;;32.13;;
5616;SDS011;2830;50.656;7.568;2024-02-28T01:49:16;74.40;;;30.55;;
5616;SDS011;2830;50.656;7.568;2024-02-28T01:51:44;77.72;;;32.40;;
5616;SDS011;2830;50.656;7.568;2024-02-28T01:54:13;82.13;;;32.88;;
5616;SDS011;2830;50.656;7.568;2024-02-28T01:56:40;73.28;;;32.33;;
5616;SDS011;2830;50.656;7.568;2024-02-28T01:59:08;80.80;;;34.63;;
5616;SDS011;2830;50.656;7.568;2024-02-28T02:01:37;90.22;;;35.50;;
5616;SDS011;2830;50.656;7.568;2024-02-28T02:04:04;83.95;;;33.22;;
5616;SDS011;2830;50.656;7.568;2024-02-28T02:06:32;86.78;;;36.20;;
5616;SDS011;2830;50.656;7.568;2024-02-28T02:08:59;72.57;;;34.00;;
5616;SDS011;2830;50.656;7.568;2024-02-28T02:11:27;89.90;;;36.28;;
5616;SDS011;2830;50.656;7.568;2024-02-28T02:13:55;73.07;;;33.92;;
5616;SDS011;2830;50.656;7.568;2024-02-28T02:16:22;71.47;;;30.65;;
5616;SDS011;2830;50.656;7.568;2024-02-28T02:18:52;77.53;;;33.90;;
5616;SDS011;2830;50.656;7.568;2024-02-28T02:21:20;68.93;;;31.35;;
5616;SDS011;2830;50.656;7.568;2024-02-28T02:23:55;72.32;;;32.58;;
5616;SDS011;2830;50.656;7.568;2024-02-28T02:26:22;61.35;;;28.35;;
5616;SDS011;2830;50.656;7.568;2024-02-28T02:28:49;69.40;;;32.00;;
5616;SDS011;2830;50.656;7.568;2024-02-28T02:31:15;71.85;;;30.45;;
5616;SDS011;2830;50.656;7.568;2024-02-28T02:33:42;67.30;;;28.90;;
5616;SDS011;2830;50.656;7.568;2024-02-28T02:36:09;62.22;;;28.63;;
5616;SDS011;2830;50.656;7.568;2024-02-28T02:38:36;73.07;;;29.45;;
5616;SDS011;2830;50.656;7.568;2024-02-28T02:41:03;67.47;;;32.15;;
5616;SDS011;2830;50.656;7.568;2024-02-28T02:43:30;69.85;;;31.13;;
5616;SDS011;2830;50.656;7.568;2024-02-28T02:45:57;68.97;;;30.40;;
5616;SDS011;2830;50.656;7.568;2024-02-28T02:48:24;76.20;;;30.65;;
5616;SDS011;2830;50.656;7.568;2024-02-28T02:50:51;78.57;;;31.17;;
5616;SDS011;2830;50.656;7.568;2024-02-28T02:53:18;76.75;;;31.98;;
5616;SDS011;2830;50.656;7.568;2024-02-28T02:55:45;67.70;;;28.42;;
5616;SDS011;2830;50.656;7.568;2024-02-28T02:58:12;59.97;;;27.50;;
5616;SDS011;2830;50.656;7.568;2024-02-28T03:00:39;61.78;;;27.05;;
5616;SDS011;2830;50.656;7.568;2024-02-28T03:03:06;62.97;;;29.23;;
5616;SDS011;2830;50.656;7.568;2024-02-28T03:05:33;68.47;;;30.00;;
5616;SDS011;2830;50.656;7.568;2024-02-28T03:07:59;63.47;;;29.40;;
5616;SDS011;2830;50.656;7.568;2024-02-28T03:10:26;66.47;;;28.55;;
5616;SDS011;2830;50.656;7.568;2024-02-28T03:12:53;71.32;;;29.40;;
5616;SDS011;2830;50.656;7.568;2024-02-28T03:15:21;60.08;;;27.10;;
5616;SDS011;2830;50.656;7.568;2024-02-28T03:17:47;53.60;;;26.38;;
5616;SDS011;2830;50.656;7.568;2024-02-28T03:20:14;66.68;;;27.95;;
5616;SDS011;2830;50.656;7.568;2024-02-28T03:22:41;65.70;;;29.33;;
5616;SDS011;2830;50.656;7.568;2024-02-28T03:25:08;65.13;;;28.63;;
5616;SDS011;2830;50.656;7.568;2024-02-28T03:27:35;67.22;;;29.35;;
5616;SDS011;2830;50.656;7.568;2024-02-28T03:30:02;57.33;;;29.38;;
5616;SDS011;2830;50.656;7.568;2024-02-28T03:32:31;67.38;;;27.33;;
5616;SDS011;2830;50.656;7.568;2024-02-28T03:34:58;62.10;;;27.90;;
5616;SDS011;2830;50.656;7.568;2024-02-28T03:37:24;70.05;;;27.65;;
5616;SDS011;2830;50.656;7.568;2024-02-28T03:39:52;56.33;;;26.13;;
5616;SDS011;2830;50.656;7.568;2024-02-28T03:42:19;58.58;;;27.70;;
5616;SDS011;2830;50.656;7.568;2024-02-28T03:44:46;66.90;;;30.20;;
5616;SDS011;2830;50.656;7.568;2024-02-28T03:47:12;62.50;;;29.85;;
5616;SDS011;2830;50.656;7.568;2024-02-28T03:49:39;66.75;;;29.88;;
5616;SDS011;2830;50.656;7.568;2024-02-28T03:52:06;61.05;;;27.92;;
5616;SDS011;2830;50.656;7.568;2024-02-28T03:54:33;62.20;;;29.55;;
5616;SDS011;2830;50.656;7.568;2024-02-28T03:57:00;60.42;;;28.17;;
5616;SDS011;2830;50.656;7.568;2024-02-28T03:59:27;72.85;;;28.58;;
5616;SDS011;2830;50.656;7.568;2024-02-28T04:01:57;67.32;;;29.15;;
5616;SDS011;2830;50.656;7.568;2024-02-28T04:04:23;59.63;;;27.20;;
5616;SDS011;2830;50.656;7.568;2024-02-28T04:06:50;61.65;;;29.27;;
5616;SDS011;2830;50.656;7.568;2024-02-28T04:09:18;64.63;;;27.63;;
5616;SDS011;2830;50.656;7.568;2024-02-28T04:11:46;58.15;;;28.58;;
5616;SDS011;2830;50.656;7.568;2024-02-28T04:14:13;65.85;;;29.17;;
5616;SDS011;2830;50.656;7.568;2024-02-28T04:16:41;68.25;;;31.52;;
5616;SDS011;2830;50.656;7.568;2024-02-28T04:19:11;76.40;;;29.65;;
5616;SDS011;2830;50.656;7.568;2024-02-28T04:21:38;79.57;;;32.10;;
5616;SDS011;2830;50.656;7.568;2024-02-28T04:24:08;66.70;;;28.00;;
5616;SDS011;2830;50.656;7.568;2024-02-28T04:26:35;69.50;;;28.58;;
5616;SDS011;2830;50.656;7.568;2024-02-28T04:29:02;70.22;;;29.35;;
5616;SDS011;2830;50.656;7.568;2024-02-28T04:31:31;74.65;;;31.27;;
5616;SDS011;2830;50.656;7.568;2024-02-28T04:33:58;64.13;;;26.02;;
5616;SDS011;2830;50.656;7.568;2024-02-28T04:36:25;58.33;;;25.17;;
5616;SDS011;2830;50.656;7.568;2024-02-28T04:38:52;60.17;;;26.00;;
5616;SDS011;2830;50.656;7.568;2024-02-28T04:41:19;67.38;;;27.55;;
5616;SDS011;2830;50.656;7.568;2024-02-28T04:43:46;72.60;;;28.02;;
5616;SDS011;2830;50.656;7.568;2024-02-28T04:46:12;68.15;;;28.58;;
5616;SDS011;2830;50.656;7.568;2024-02-28T04:48:39;64.78;;;29.05;;
5616;SDS011;2830;50.656;7.568;2024-02-28T04:51:06;76.10;;;30.45;;
5616;SDS011;2830;50.656;7.568;2024-02-28T04:53:33;59.55;;;28.38;;
5616;SDS011;2830;50.656;7.568;2024-02-28T04:56:00;56.72;;;25.92;;
5616;SDS011;2830;50.656;7.568;2024-02-28T04:58:27;72.95;;;30.50;;
5616;SDS011;2830;50.656;7.568;2024-02-28T05:00:54;64.30;;;27.60;;
5616;SDS011;2830;50.656;7.568;2024-02-28T05:03:21;55.85;;;27.33;;
5616;SDS011;2830;50.656;7.568;2024-02-28T05:05:48;70.50;;;28.75;;
5616;SDS011;2830;50.656;7.568;2024-02-28T05:08:15;58.35;;;26.42;;
5616;SDS011;2830;50.656;7.568;2024-02-28T05:10:43;69.70;;;30.15;;
5616;SDS011;2830;50.656;7.568;2024-02-28T05:13:10;67.38;;;27.85;;
5616;SDS011;2830;50.656;7.568;2024-02-28T05:15:37;66.30;;;26.90;;
5616;SDS011;2830;50.656;7.568;2024-02-28T05:18:04;63.05;;;26.80;;
5616;SDS011;2830;50.656;7.568;2024-02-28T05:20:31;58.05;;;28.33;;
5616;SDS011;2830;50.656;7.568;2024-02-28T05:22:58;70.03;;;30.85;;
5616;SDS011;2830;50.656;7.568;2024-02-28T05:25:24;56.75;;;27.05;;
5616;SDS011;2830;50.656;7.568;2024-02-28T05:27:51;63.78;;;26.45;;
5616;SDS011;2830;50.656;7.568;2024-02-28T05:30:18;73.20;;;30.33;;
5616;SDS011;2830;50.656;7.568;2024-02-28T05:32:46;75.88;;;29.42;;
5616;SDS011;2830;50.656;7.568;2024-02-28T05:35:13;67.63;;;27.83;;
5616;SDS011;2830;50.656;7.568;2024-02-28T05:37:40;75.85;;;29.77;;
5616;SDS011;2830;50.656;7.568;2024-02-28T05:40:08;61.72;;;26.50;;
5616;SDS011;2830;50.656;7.568;2024-02-28T05:42:35;63.67;;;25.00;;
5616;SDS011;2830;50.656;7.568;2024-02-28T05:45:02;65.53;;;28.40;;
5616;SDS011;2830;50.656;7.568;2024-02-28T05:47:30;62.92;;;25.67;;
5616;SDS011;2830;50.656;7.568;2024-02-28T05:49:57;63.50;;;24.35;;
5616;SDS011;2830;50.656;7.568;2024-02-28T05:52:24;56.03;;;26.38;;
5616;SDS011;2830;50.656;7.568;2024-02-28T05:54:51;68.05;;;25.95;;
5616;SDS011;2830;50.656;7.568;2024-02-28T05:57:18;73.32;;;27.52;;
5616;SDS011;2830;50.656;7.568;2024-02-28T05:59:45;60.30;;;25.85;;
5616;SDS011;2830;50.656;7.568;2024-02-28T06:02:12;44.88;;;21.95;;
5616;SDS011;2830;50.656;7.568;2024-02-28T06:04:39;59.95;;;24.63;;
5616;SDS011;2830;50.656;7.568;2024-02-28T06:07:06;59.13;;;25.95;;
5616;SDS011;2830;50.656;7.568;2024-02-28T06:09:33;61.70;;;26.30;;
5616;SDS011;2830;50.656;7.568;2024-02-28T06:12:00;58.10;;;25.08;;
5616;SDS011;2830;50.656;7.568;2024-02-28T06:14:28;58.22;;;25.30;;
5616;SDS011;2830;50.656;7.568;2024-02-28T06:16:55;69.80;;;26.88;;
5616;SDS011;2830;50.656;7.568;2024-02-28T06:19:21;61.95;;;27.83;;
5616;SDS011;2830;50.656;7.568;2024-02-28T06:21:48;65.55;;;25.92;;
5616;SDS011;2830;50.656;7.568;2024-02-28T06:24:16;63.80;;;25.05;;
5616;SDS011;2830;50.656;7.568;2024-02-28T06:26:43;68.80;;;27.10;;
5616;SDS011;2830;50.656;7.568;2024-02-28T06:29:14;64.28;;;24.90;;
5616;SDS011;2830;50.656;7.568;2024-02-28T06:31:41;63.88;;;27.95;;
5616;SDS011;2830;50.656;7.568;2024-02-28T06:34:08;59.65;;;25.08;;
5616;SDS011;2830;50.656;7.568;2024-02-28T06:36:38;63.60;;;25.05;;
5616;SDS011;2830;50.656;7.568;2024-02-28T06:39:05;61.50;;;25.30;;
5616;SDS011;2830;50.656;7.568;2024-02-28T06:41:32;60.03;;;26.00;;
5616;SDS011;2830;50.656;7.568;2024-02-28T06:43:59;58.60;;;28.10;;
5616;SDS011;2830;50.656;7.568;2024-02-28T06:46:26;68.00;;;28.63;;
5616;SDS011;2830;50.656;7.568;2024-02-28T06:48:53;51.08;;;22.73;;
5616;SDS011;2830;50.656;7.568;2024-02-28T06:51:20;60.78;;;27.20;;
5616;SDS011;2830;50.656;7.568;2024-02-28T06:53:47;60.60;;;26.40;;
5616;SDS011;2830;50.656;7.568;2024-02-28T06:56:14;58.70;;;24.95;;
5616;SDS011;2830;50.656;7.568;2024-02-28T06:58:41;57.80;;;25.27;;
5616;SDS011;2830;50.656;7.568;2024-02-28T07:01:08;73.68;;;28.50;;
5616;SDS011;2830;50.656;7.568;2024-02-28T07:03:35;60.92;;;26.88;;
5616;SDS011;2830;50.656;7.568;2024-02-28T07:06:02;68.93;;;26.13;;
5616;SDS011;2830;50.656;7.568;2024-02-28T07:08:29;63.63;;;24.38;;
5616;SDS011;2830;50.656;7.568;2024-02-28T07:10:58;65.18;;;27.50;;
5616;SDS011;2830;50.656;7.568;2024-02-28T07:13:25;63.15;;;25.65;;
5616;SDS011;2830;50.656;7.568;2024-02-28T07:15:53;56.88;;;26.55;;
5616;SDS011;2830;50.656;7.568;2024-02-28T07:18:21;62.83;;;25.70;;
5616;SDS011;2830;50.656;7.568;2024-02-28T07:20:48;53.05;;;23.23;;
5616;SDS011;2830;50.656;7.568;2024-02-28T07:23:14;58.20;;;23.48;;
5616;SDS011;2830;50.656;7.568;2024-02-28T07:25:41;55.33;;;24.55;;
5616;SDS011;2830;50.656;7.568;2024-02-28T07:28:08;46.40;;;21.48;;
5616;SDS011;2830;50.656;7.568;2024-02-28T07:30:35;56.85;;;22.05;;
5616;SDS011;2830;50.656;7.568;2024-02-28T07:33:02;54.08;;;25.85;;
5616;SDS011;2830;50.656;7.568;2024-02-28T07:35:31;54.10;;;22.45;;
5616;SDS011;2830;50.656;7.568;2024-02-28T07:37:58;59.33;;;25.35;;
5616;SDS011;2830;50.656;7.568;2024-02-28T07:40:25;66.88;;;26.40;;
5616;SDS011;2830;50.656;7.568;2024-02-28T07:42:52;61.65;;;25.25;;
5616;SDS011;2830;50.656;7.568;2024-02-28T07:45:19;58.75;;;25.95;;
5616;SDS011;2830;50.656;7.568;2024-02-28T07:47:46;53.08;;;23.33;;
5616;SDS011;2830;50.656;7.568;2024-02-28T07:50:13;61.75;;;24.25;;
5616;SDS011;2830;50.656;7.568;2024-02-28T07:52:40;55.30;;;24.10;;
5616;SDS011;2830;50.656;7.568;2024-02-28T07:55:07;53.08;;;22.27;;
5616;SDS011;2830;50.656;7.568;2024-02-28T07:57:34;60.85;;;21.20;;
5616;SDS011;2830;50.656;7.568;2024-02-28T08:00:02;52.33;;;24.02;;
5616;SDS011;2830;50.656;7.568;2024-02-28T08:02:29;56.20;;;23.85;;
5616;SDS011;2830;50.656;7.568;2024-02-28T08:04:56;55.25;;;24.10;;
5616;SDS011;2830;50.656;7.568;2024-02-28T08:07:23;59.75;;;25.70;;
5616;SDS011;2830;50.656;7.568;2024-02-28T08:09:50;50.67;;;21.60;;
5616;SDS011;2830;50.656;7.568;2024-02-28T08:12:17;46.13;;;22.88;;
5616;SDS011;2830;50.656;7.568;2024-02-28T08:14:44;40.30;;;20.90;;
5616;SDS011;2830;50.656;7.568;2024-02-28T08:17:12;54.95;;;21.10;;
5616;SDS011;2830;50.656;7.568;2024-02-28T08:19:40;52.22;;;21.00;;
5616;SDS011;2830;50.656;7.568;2024-02-28T08:22:08;53.13;;;23.20;;
5616;SDS011;2830;50.656;7.568;2024-02-28T08:24:37;49.83;;;22.90;;
5616;SDS011;2830;50.656;7.568;2024-02-28T08:27:04;54.55;;;21.67;;
5616;SDS011;2830;50.656;7.568;2024-02-28T08:29:31;43.33;;;21.08;;
5616;SDS011;2830;50.656;7.568;2024-02-28T08:31:59;45.95;;;19.77;;
5616;SDS011;2830;50.656;7.568;2024-02-28T08:34:26;57.33;;;23.98;;
5616;SDS011;2830;50.656;7.568;2024-02-28T08:36:53;42.28;;;20.40;;
5616;SDS011;2830;50.656;7.568;2024-02-28T08:39:20;45.65;;;21.13;;
5616;SDS011;2830;50.656;7.568;2024-02-28T08:41:47;34.88;;;17.58;;
5616;SDS011;2830;50.656;7.568;2024-02-28T08:44:14;45.78;;;21.85;;
5616;SDS011;2830;50.656;7.568;2024-02-28T08:46:41;40.75;;;20.45;;
5616;SDS011;2830;50.656;7.568;2024-02-28T08:49:07;43.45;;;21.10;;
5616;SDS011;2830;50.656;7.568;2024-02-28T08:51:35;37.70;;;18.15;;
5616;SDS011;2830;50.656;7.568;2024-02-28T08:54:02;51.90;;;20.88;;
5616;SDS011;2830;50.656;7.568;2024-02-28T08:56:30;54.38;;;23.05;;
5616;SDS011;2830;50.656;7.568;2024-02-28T08:58:56;46.78;;;20.85;;
5616;SDS011;2830;50.656;7.568;2024-02-28T09:01:23;45.03;;;20.73;;
5616;SDS011;2830;50.656;7.568;2024-02-28T09:03:50;41.05;;;18.42;;
5616;SDS011;2830;50.656;7.568;2024-02-28T09:06:17;50.70;;;21.98;;
5616;SDS011;2830;50.656;7.568;2024-02-28T09:08:44;53.33;;;22.75;;
5616;SDS011;2830;50.656;7.568;2024-02-28T09:11:11;47.63;;;21.45;;
5616;SDS011;2830;50.656;7.568;2024-02-28T09:13:38;49.45;;;21.35;;
5616;SDS011;2830;50.656;7.568;2024-02-28T09:16:05;59.80;;;23.10;;
5616;SDS011;2830;50.656;7.568;2024-02-28T09:18:32;41.35;;;18.90;;
5616;SDS011;2830;50.656;7.568;2024-02-28T09:21:00;40.40;;;21.33;;
5616;SDS011;2830;50.656;7.568;2024-02-28T09:23:26;42.60;;;20.65;;
5616;SDS011;2830;50.656;7.568;2024-02-28T09:25:53;47.55;;;21.88;;
5616;SDS011;2830;50.656;7.568;2024-02-28T09:28:22;51.22;;;22.38;;
5616;SDS011;2830;50.656;7.568;2024-02-28T09:30:49;47.80;;;22.00;;
5616;SDS011;2830;50.656;7.568;2024-02-28T09:33:19;41.40;;;20.38;;
5616;SDS011;2830;50.656;7.568;2024-02-28T09:35:46;42.22;;;21.52;;
5616;SDS011;2830;50.656;7.568;2024-02-28T09:38:13;48.15;;;21.63;;
5616;SDS011;2830;50.656;7.568;2024-02-28T09:40:40;45.58;;;20.10;;
5616;SDS011;2830;50.656;7.568;2024-02-28T09:43:11;50.40;;;21.33;;
5616;SDS011;2830;50.656;7.568;2024-02-28T09:45:41;39.25;;;19.63;;
5616;SDS011;2830;50.656;7.568;2024-02-28T09:48:10;39.25;;;19.52;;
5616;SDS011;2830;50.656;7.568;2024-02-28T09:50:39;44.88;;;20.02;;
5616;SDS011;2830;50.656;7.568;2024-02-28T09:53:06;51.70;;;22.27;;
5616;SDS011;2830;50.656;7.568;2024-02-28T09:55:36;44.08;;;20.20;;
5616;SDS011;2830;50.656;7.568;2024-02-28T09:58:03;43.33;;;23.38;;
5616;SDS011;2830;50.656;7.568;2024-02-28T10:00:31;43.40;;;20.73;;
5616;SDS011;2830;50.656;7.568;2024-02-28T10:03:00;47.00;;;21.30;;
5616;SDS011;2830;50.656;7.568;2024-02-28T10:05:27;51.40;;;23.75;;
5616;SDS011;2830;50.656;7.568;2024-02-28T10:07:55;44.28;;;21.00;;
5616;SDS011;2830;50.656;7.568;2024-02-28T10:10:22;49.70;;;23.85;;
5616;SDS011;2830;50.656;7.568;2024-02-28T10:12:49;47.90;;;22.90;;
5616;SDS011;2830;50.656;7.568;2024-02-28T10:15:16;50.38;;;24.83;;
5616;SDS011;2830;50.656;7.568;2024-02-28T10:17:43;46.58;;;21.83;;
5616;SDS011;2830;50.656;7.568;2024-02-28T10:20:10;48.90;;;22.45;;
5616;SDS011;2830;50.656;7.568;2024-02-28T10:22:37;43.72;;;20.67;;
5616;SDS011;2830;50.656;7.568;2024-02-28T10:25:05;41.33;;;20.55;;
5616;SDS011;2830;50.656;7.568;2024-02-28T10:27:33;47.78;;;21.38;;
5616;SDS011;2830;50.656;7.568;2024-02-28T10:30:01;40.67;;;19.95;;
5616;SDS011;2830;50.656;7.568;2024-02-28T10:32:32;47.80;;;22.60;;
5616;SDS011;2830;50.656;7.568;2024-02-28T10:35:03;45.05;;;22.15;;
5616;SDS011;2830;50.656;7.568;2024-02-28T10:37:37;46.50;;;20.05;;
5616;SDS011;2830;50.656;7.568;2024-02-28T10:40:05;42.60;;;21.00;;
5616;SDS011;2830;50.656;7.568;2024-02-28T10:42:33;46.10;;;20.77;;
5616;SDS011;2830;50.656;7.568;2024-02-28T10:45:00;40.40;;;20.48;;
5616;SDS011;2830;50.656;7.568;2024-02-28T10:47:46;42.45;;;19.92;;
5616;SDS011;2830;50.656;7.568;2024-02-28T10:50:16;41.00;;;20.27;;
5616;SDS011;2830;50.656;7.568;2024-02-28T10:52:44;41.55;;;19.77;;
5616;SDS011;2830;50.656;7.568;2024-02-28T10:55:21;35.08;;;19.20;;
5616;SDS011;2830;50.656;7.568;2024-02-28T10:57:58;35.40;;;18.40;;
5616;SDS011;2830;50.656;7.568;2024-02-28T11:00:34;30.70;;;16.77;;
5616;SDS011;2830;50.656;7.568;2024-02-28T11:03:02;36.87;;;17.00;;
5616;SDS011;2830;50.656;7.568;2024-02-28T11:05:39;36.67;;;18.60;;
5616;SDS011;2830;50.656;7.568;2024-02-28T11:08:22;34.63;;;19.27;;
5616;SDS011;2830;50.656;7.568;2024-02-28T11:10:59;33.37;;;17.57;;
5616;SDS011;2830;50.656;7.568;2024-02-28T11:13:33;32.40;;;17.10;;
5616;SDS011;2830;50.656;7.568;2024-02-28T11:16:07;34.77;;;17.97;;
5616;SDS011;2830;50.656;7.568;2024-02-28T11:18:35;35.40;;;18.33;;
5616;SDS011;2830;50.656;7.568;2024-02-28T11:21:02;34.07;;;18.70;;
5616;SDS011;2830;50.656;7.568;2024-02-28T11:23:36;35.93;;;19.83;;
5616;SDS011;2830;50.656;7.568;2024-02-28T11:26:03;30.60;;;17.67;;
5616;SDS011;2830;50.656;7.568;2024-02-28T11:28:30;36.93;;;18.47;;
5616;SDS011;2830;50.656;7.568;2024-02-28T11:30:57;29.80;;;16.43;;
5616;SDS011;2830;50.656;7.568;2024-02-28T11:33:24;38.17;;;18.80;;
5616;SDS011;2830;50.656;7.568;2024-02-28T11:35:55;33.00;;;16.73;;
5616;SDS011;2830;50.656;7.568;2024-02-28T11:38:26;30.90;;;17.53;;
5616;SDS011;2830;50.656;7.568;2024-02-28T11:40:53;34.20;;;17.90;;
5616;SDS011;2830;50.656;7.568;2024-02-28T11:43:21;33.30;;;18.13;;
5616;SDS011;2830;50.656;7.568;2024-02-28T11:45:48;28.80;;;17.90;;
5616;SDS011;2830;50.656;7.568;2024-02-28T11:48:15;32.40;;;18.20;;
5616;SDS011;2830;50.656;7.568;2024-02-28T11:50:43;33.43;;;19.17;;
5616;SDS011;2830;50.656;7.568;2024-02-28T11:53:10;35.50;;;20.20;;
5616;SDS011;2830;50.656;7.568;2024-02-28T11:55:37;33.37;;;18.63;;
5616;SDS011;2830;50.656;7.568;2024-02-28T11:58:08;33.53;;;18.90;;
5616;SDS011;2830;50.656;7.568;2024-02-28T12:00:46;35.33;;;19.00;;
5616;SDS011;2830;50.656;7.568;2024-02-28T12:03:14;32.00;;;18.73;;
5616;SDS011;2830;50.656;7.568;2024-02-28T12:05:46;35.10;;;20.00;;
5616;SDS011;2830;50.656;7.568;2024-02-28T12:08:13;39.00;;;19.33;;
5616;SDS011;2830;50.656;7.568;2024-02-28T12:10:40;35.53;;;20.87;;
5616;SDS011;2830;50.656;7.568;2024-02-28T12:13:06;38.57;;;20.13;;
5616;SDS011;2830;50.656;7.568;2024-02-28T12:15:34;34.73;;;20.60;;
5616;SDS011;2830;50.656;7.568;2024-02-28T12:18:06;31.90;;;18.30;;
5616;SDS011;2830;50.656;7.568;2024-02-28T12:20:35;30.50;;;17.33;;
5616;SDS011;2830;50.656;7.568;2024-02-28T12:23:04;28.47;;;17.70;;
5616;SDS011;2830;50.656;7.568;2024-02-28T12:25:31;32.40;;;17.77;;
5616;SDS011;2830;50.656;7.568;2024-02-28T12:27:58;36.40;;;18.67;;
5616;SDS011;2830;50.656;7.568;2024-02-28T12:30:25;33.20;;;19.87;;
5616;SDS011;2830;50.656;7.568;2024-02-28T12:32:52;33.10;;;18.70;;
5616;SDS011;2830;50.656;7.568;2024-02-28T12:35:19;36.10;;;20.43;;
5616;SDS011;2830;50.656;7.568;2024-02-28T12:37:46;39.10;;;20.97;;
5616;SDS011;2830;50.656;7.568;2024-02-28T12:40:16;37.03;;;20.57;;
5616;SDS011;2830;50.656;7.568;2024-02-28T12:42:43;38.07;;;20.10;;
5616;SDS011;2830;50.656;7.568;2024-02-28T12:45:10;38.40;;;20.30;;
5616;SDS011;2830;50.656;7.568;2024-02-28T12:47:37;43.53;;;23.57;;
5616;SDS011;2830;50.656;7.568;2024-02-28T12:50:05;39.30;;;22.40;;
5616;SDS011;2830;50.656;7.568;2024-02-28T12:52:34;34.50;;;20.20;;
5616;SDS011;2830;50.656;7.568;2024-02-28T12:55:02;35.77;;;19.17;;
5616;SDS011;2830;50.656;7.568;2024-02-28T12:57:29;35.10;;;20.63;;
5616;SDS011;2830;50.656;7.568;2024-02-28T12:59:56;38.57;;;20.53;;
5616;SDS011;2830;50.656;7.568;2024-02-28T13:02:23;40.47;;;20.77;;
5616;SDS011;2830;50.656;7.568;2024-02-28T13:04:50;35.13;;;19.17;;
5616;SDS011;2830;50.656;7.568;2024-02-28T13:07:17;39.97;;;20.80;;
5616;SDS011;2830;50.656;7.568;2024-02-28T13:09:47;37.13;;;19.63;;
5616;SDS011;2830;50.656;7.568;2024-02-28T13:12:15;36.83;;;20.30;;
5616;SDS011;2830;50.656;7.568;2024-02-28T13:14:42;37.97;;;18.97;;
5616;SDS011;2830;50.656;7.568;2024-02-28T18:52:25;24.30;;;13.52;;
5616;SDS011;2830;50.656;7.568;2024-02-28T18:54:52;41.92;;;22.60;;
5616;SDS011;2830;50.656;7.568;2024-02-28T18:57:18;33.83;;;19.30;;
5616;SDS011;2830;50.656;7.568;2024-02-28T18:59:45;37.67;;;21.05;;
5616;SDS011;2830;50.656;7.568;2024-02-28T19:02:12;30.75;;;19.73;;
5616;SDS011;2830;50.656;7.568;2024-02-28T19:04:39;14.63;;;9.00;;
5616;SDS011;2830;50.656;7.568;2024-02-28T19:07:06;9.68;;;6.22;;
5616;SDS011;2830;50.656;7.568;2024-02-28T19:09:34;16.88;;;9.35;;
5616;SDS011;2830;50.656;7.568;2024-02-28T19:12:02;13.60;;;7.47;;
5616;SDS011;2830;50.656;7.568;2024-02-28T19:14:29;14.50;;;8.88;;
5616;SDS011;2830;50.656;7.568;2024-02-28T19:16:56;14.75;;;10.38;;
5616;SDS011;2830;50.656;7.568;2024-02-28T19:19:23;14.32;;;10.20;;
5616;SDS011;2830;50.656;7.568;2024-02-28T19:21:52;13.70;;;9.77;;
5616;SDS011;2830;50.656;7.568;2024-02-28T19:24:19;15.48;;;10.73;;
5616;SDS011;2830;50.656;7.568;2024-02-28T19:26:48;13.30;;;9.70;;
5616;SDS011;2830;50.656;7.568;2024-02-28T19:29:15;12.77;;;8.98;;
5616;SDS011;2830;50.656;7.568;2024-02-28T19:31:42;14.43;;;9.65;;
5616;SDS011;2830;50.656;7.568;2024-02-28T19:34:10;14.05;;;8.00;;
5616;SDS011;2830;50.656;7.568;2024-02-28T19:36:38;21.35;;;10.75;;
5616;SDS011;2830;50.656;7.568;2024-02-28T19:39:05;16.70;;;9.88;;
5616;SDS011;2830;50.656;7.568;2024-02-28T19:41:33;14.10;;;9.18;;
5616;SDS011;2830;50.656;7.568;2024-02-28T19:44:00;15.30;;;8.23;;
5616;SDS011;2830;50.656;7.568;2024-02-28T19:46:30;11.52;;;6.47;;
5616;SDS011;2830;50.656;7.568;2024-02-28T19:48:57;10.05;;;6.35;;
5616;SDS011;2830;50.656;7.568;2024-02-28T19:51:24;10.73;;;6.97;;
5616;SDS011;2830;50.656;7.568;2024-02-28T19:53:51;15.98;;;9.60;;
5616;SDS011;2830;50.656;7.568;2024-02-28T19:56:17;20.55;;;12.43;;
5616;SDS011;2830;50.656;7.568;2024-02-28T19:58:44;12.10;;;9.10;;
5616;SDS011;2830;50.656;7.568;2024-02-28T20:01:14;16.55;;;10.30;;
5616;SDS011;2830;50.656;7.568;2024-02-28T20:03:41;13.10;;;7.93;;
5616;SDS011;2830;50.656;7.568;2024-02-28T20:06:08;13.60;;;7.28;;
5616;SDS011;2830;50.656;7.568;2024-02-28T20:08:35;14.32;;;9.30;;
5616;SDS011;2830;50.656;7.568;2024-02-28T20:11:03;24.98;;;14.35;;
5616;SDS011;2830;50.656;7.568;2024-02-28T20:13:31;21.17;;;12.45;;
5616;SDS011;2830;50.656;7.568;2024-02-28T20:15:58;16.73;;;11.05;;
5616;SDS011;2830;50.656;7.568;2024-02-28T20:18:25;16.20;;;9.60;;
5616;SDS011;2830;50.656;7.568;2024-02-28T20:20:53;12.75;;;7.80;;
5616;SDS011;2830;50.656;7.568;2024-02-28T20:23:20;17.20;;;10.18;;
5616;SDS011;2830;50.656;7.568;2024-02-28T20:25:47;15.65;;;8.75;;